Time;durP1;ratioP1;P1;durP2;ratioP2;P2;SDS_P1;SDS_P2;PMS_P1;PMS_P2;Temp;Humidity;BMP_temperature;BMP_pressure;BME280_temperature;BME280_humidity;BME280_pressure;Samples;Min_cycle;Max_cycle;Signal;HPM_P1;HPM_P2
2022/06/23 06:18:51;;;;;;;179.27;125.82;;;;;;;19.52;75.20;96362.44;2094249;27;21253;-63
2022/06/23 06:19:55;;;;;;;219.80;193.93;;;;;;;19.47;75.61;96352.22;2091397;28;20200;-63
2022/06/23 06:21:03;;;;;;;248.55;222.27;;;;;;;19.80;75.18;96373.31;2089847;28;20215;-64
2022/06/23 06:22:44;;;;;;;205.45;179.88;;;;;;;19.97;74.30;96358.63;2079257;28;20260;-63
2022/06/23 06:39:22;;;;;;;111.82;11.35;;;;;;;20.73;70.51;96362.59;2116254;27;20553;-63
2022/06/23 06:40:23;;;;;;;118.18;9.07;;;;;;;20.71;70.16;96376.00;2113759;28;20195;-63
2022/06/23 06:41:26;;;;;;;126.72;24.67;;;;;;;20.67;69.62;96375.41;2115738;28;20592;-63
2022/06/23 06:42:32;;;;;;;129.05;54.80;;;;;;;20.39;69.03;96369.91;2097020;28;20302;-62
2022/06/23 06:55:47;;;;;;;110.45;20.08;;;;;;;20.99;68.61;96384.13;2082112;28;20564;-63
2022/06/23 06:56:54;;;;;;;117.15;28.02;;;;;;;21.05;68.20;96370.25;2072966;28;20198;-63
2022/06/23 06:58:32;;;;;;;121.85;48.70;;;;;;;20.99;68.75;96379.63;2058678;28;20222;-63
2022/06/23 07:10:28;;;;;;;151.43;47.45;;;;;;;21.19;69.50;96379.59;2124453;27;20864;-63
2022/06/23 07:11:41;;;;;;;144.73;65.32;;;;;;;20.95;69.49;96380.91;2118073;28;20204;-63
2022/06/23 07:12:52;;;;;;;152.25;80.82;;;;;;;20.94;70.74;96384.53;2099225;28;20744;-64
2022/06/23 07:13:59;;;;;;;120.25;37.97;;;;;;;21.16;69.02;96375.41;2105568;28;20194;-64
2022/06/23 07:26:27;;;;;;;108.40;9.85;;;;;;;21.34;65.89;96391.50;2084775;28;21044;-61
2022/06/23 07:27:39;;;;;;;125.80;37.42;;;;;;;21.41;65.85;96381.13;2069534;28;20454;-61
2022/06/23 07:28:48;;;;;;;101.03;8.35;;;;;;;21.38;65.91;96386.72;2085316;28;20207;-61
2022/06/23 07:29:57;;;;;;;112.57;13.75;;;;;;;21.76;65.27;96387.63;2077809;28;20201;-61
2022/06/23 07:41:46;;;;;;;102.30;14.50;;;;;;;21.80;63.57;96377.56;2084234;28;20562;-61
2022/06/23 07:43:05;;;;;;;109.28;12.40;;;;;;;22.08;62.78;96362.50;2071424;28;20258;-61
2022/06/23 07:44:21;;;;;;;104.35;14.32;;;;;;;22.20;62.75;96363.13;2079377;28;20192;-61
2022/06/23 07:45:31;;;;;;;116.43;15.25;;;;;;;22.38;61.34;96355.22;2070822;28;20212;-61
2022/06/23 07:56:49;;;;;;;123.45;17.63;;;;;;;22.28;61.28;96355.25;2085904;28;20561;-61
2022/06/23 07:57:53;;;;;;;117.93;20.92;;;;;;;22.57;60.39;96350.75;2077408;28;20224;-61
2022/06/23 07:58:58;;;;;;;113.00;16.92;;;;;;;22.86;59.28;96361.19;2088375;28;20196;-62
2022/06/23 08:00:06;;;;;;;111.35;20.10;;;;;;;22.95;58.56;96370.06;2083974;28;20676;-61
2022/06/23 08:01:17;;;;;;;120.45;26.55;;;;;;;22.86;59.40;96341.72;2079441;28;20201;-61
2022/06/23 08:13:12;;;;;;;113.38;18.55;;;;;;;23.45;57.49;96336.69;2102747;27;20571;-61
2022/06/23 08:14:22;;;;;;;110.43;10.13;;;;;;;23.55;56.64;96357.91;2095260;28;20537;-61
2022/06/23 08:16:49;;;;;;;107.68;19.67;;;;;;;23.20;58.35;96355.19;2095132;28;20191;-61
2022/06/23 08:18:05;;;;;;;121.45;23.48;;;;;;;23.18;58.57;96356.31;2091747;28;20258;-61
2022/06/23 08:29:56;;;;;;;141.45;37.65;;;;;;;24.06;57.40;96310.03;2085209;28;20908;-63
2022/06/23 08:30:57;;;;;;;125.22;28.27;;;;;;;23.73;57.18;96333.88;2080999;28;20326;-63
2022/06/23 08:32:00;;;;;;;132.90;52.60;;;;;;;23.46;58.60;96333.03;2080542;28;20193;-63
2022/06/23 08:33:04;;;;;;;170.13;55.53;;;;;;;23.76;57.68;96334.38;2074825;28;20221;-63
2022/06/23 08:34:06;;;;;;;144.85;49.63;;;;;;;23.52;58.04;96329.75;2078255;28;20800;-63
2022/06/23 08:35:16;;;;;;;141.73;61.50;;;;;;;24.25;56.97;96331.13;2078288;28;20208;-64
2022/06/23 08:46:28;;;;;;;118.75;11.75;;;;;;;24.54;56.60;96327.19;2085559;28;20564;-63
2022/06/23 08:48:18;;;;;;;126.57;33.08;;;;;;;25.40;54.89;96324.28;2067982;28;20225;-63
2022/06/23 08:49:32;;;;;;;118.00;11.70;;;;;;;24.98;55.34;96327.94;2062120;28;20205;-63
2022/06/23 08:50:42;;;;;;;115.60;9.05;;;;;;;24.42;56.00;96324.00;2076786;28;20200;-63
2022/06/23 08:52:03;;;;;;;125.13;16.27;;;;;;;24.24;56.55;96323.25;2076621;28;20565;-63
2022/06/23 08:53:29;;;;;;;121.82;7.55;;;;;;;24.44;56.12;96321.16;2073752;28;20216;-60
2022/06/23 08:54:48;;;;;;;108.38;8.45;;;;;;;24.77;55.18;96315.91;2072843;28;20193;-61
2022/06/23 08:56:06;;;;;;;110.88;9.88;;;;;;;24.83;55.30;96323.25;2072101;28;20197;-60
2022/06/23 08:57:10;;;;;;;116.32;8.10;;;;;;;24.32;56.63;96325.16;2061956;28;20209;-60
2022/06/23 08:58:29;;;;;;;123.57;10.20;;;;;;;24.65;56.60;96318.06;2079968;28;20193;-61
2022/06/23 08:59:46;;;;;;;132.43;30.83;;;;;;;25.74;54.94;96324.03;2077724;28;20209;-61
2022/06/23 09:00:55;;;;;;;109.20;8.13;;;;;;;25.90;53.26;96322.28;2072493;28;20596;-61
2022/06/23 09:02:26;;;;;;;109.20;8.10;;;;;;;25.33;54.72;96323.25;2072951;28;20198;-60
2022/06/23 09:04:05;;;;;;;128.18;31.20;;;;;;;25.69;52.63;96320.22;2073739;28;20225;-60
2022/06/23 09:05:29;;;;;;;130.48;37.08;;;;;;;25.55;52.38;96322.56;2075286;28;20283;-60
2022/06/23 09:22:38;;;;;;;110.88;6.53;;;;;;;25.07;54.14;96308.25;2102323;27;20577;-59
2022/06/23 09:23:54;;;;;;;120.40;7.25;;;;;;;24.25;56.43;96309.78;2080321;28;20240;-60
2022/06/23 09:25:06;;;;;;;112.57;6.82;;;;;;;25.10;55.11;96316.75;2080607;28;20573;-60
2022/06/23 09:26:35;;;;;;;103.38;5.78;;;;;;;25.35;52.98;96313.22;2079660;28;20263;-60
2022/06/23 09:28:14;;;;;;;109.45;8.10;;;;;;;25.17;53.96;96308.91;2082497;28;20227;-60
2022/06/23 09:29:45;;;;;;;119.55;13.32;;;;;;;25.36;53.44;96304.25;2082648;28;20205;-60
2022/06/23 09:39:11;;;;;;;132.48;16.45;;;;;;;25.68;51.99;96294.47;2083571;28;20590;-59
2022/06/23 09:40:40;;;;;;;125.43;27.20;;;;;;;25.13;53.26;96288.88;2078880;28;20205;-59
2022/06/23 09:41:54;;;;;;;114.78;19.27;;;;;;;25.89;51.60;96293.88;2077432;28;20201;-59
2022/06/23 09:43:28;;;;;;;110.13;15.13;;;;;;;26.20;51.35;96293.94;2076098;28;20220;-60
2022/06/23 09:44:56;;;;;;;115.03;21.23;;;;;;;26.76;50.63;96289.47;2082534;28;20220;-60
2022/06/23 09:46:35;;;;;;;121.10;28.52;;;;;;;27.11;48.70;96282.63;2069455;28;20206;-60
2022/06/23 09:48:11;;;;;;;117.63;16.48;;;;;;;27.56;48.27;96289.94;2072641;28;20223;-60
2022/06/23 09:49:35;;;;;;;124.32;26.85;;;;;;;26.02;50.60;96290.69;2084888;28;20208;-60
2022/06/23 09:51:12;;;;;;;117.32;18.48;;;;;;;26.00;49.05;96166.97;2079032;28;20204;-60
2022/06/23 09:52:13;;;;;;;120.45;21.73;;;;;;;26.80;49.05;96291.56;2069150;28;20200;-60
2022/06/23 09:53:45;;;;;;;120.53;29.08;;;;;;;27.57;47.60;96287.06;2086255;28;20261;-60
2022/06/23 09:55:15;;;;;;;116.45;11.27;;;;;;;26.29;48.20;96289.38;2080500;28;20220;-60
2022/06/23 09:56:31;;;;;;;122.55;13.50;;;;;;;26.07;49.89;96283.81;2078790;28;20204;-60
2022/06/23 09:58:05;;;;;;;114.45;12.05;;;;;;;26.07;48.92;96280.31;2072982;28;20226;-60
2022/06/23 09:59:28;;;;;;;112.43;5.15;;;;;;;26.83;47.23;96287.72;2083731;28;20254;-60
2022/06/23 10:00:48;;;;;;;119.95;12.77;;;;;;;25.75;49.96;96293.63;2078598;28;20680;-60
2022/06/23 10:02:09;;;;;;;136.43;23.77;;;;;;;26.07;49.38;96283.81;2078378;28;20193;-59
2022/06/23 10:03:39;;;;;;;109.72;7.38;;;;;;;25.91;49.05;96278.50;2078176;28;20204;-60
2022/06/23 10:05:05;;;;;;;117.07;13.80;;;;;;;26.67;48.05;96276.09;2078319;28;20196;-60
2022/06/23 10:06:18;;;;;;;114.30;8.70;;;;;;;27.28;46.96;96277.94;2078253;28;20200;-60
2022/06/23 10:07:56;;;;;;;111.82;12.82;;;;;;;28.08;45.97;96275.59;2070574;28;20858;-60
2022/06/23 10:22:36;;;;;;;116.45;17.17;;;;;;;27.38;45.08;96277.69;2101379;27;21081;-59
2022/06/23 10:23:40;;;;;;;109.28;5.70;;;;;;;27.54;45.51;96279.38;2090738;28;20203;-60
2022/06/23 10:24:56;;;;;;;109.32;7.07;;;;;;;27.85;45.16;96268.47;2093505;28;20655;-60
2022/06/23 10:26:24;;;;;;;116.45;18.88;;;;;;;27.46;45.93;96266.06;2095375;28;20191;-59
2022/06/23 10:27:51;;;;;;;119.10;5.72;;;;;;;27.95;44.68;96278.09;2090270;27;20226;-59
2022/06/23 10:29:17;;;;;;;108.65;11.57;;;;;;;26.59;47.33;96262.78;2098092;28;20249;-60
2022/06/23 10:30:31;;;;;;;109.13;5.35;;;;;;;27.00;47.47;96257.09;2095215;28;20614;-60
2022/06/23 10:31:57;;;;;;;105.18;5.20;;;;;;;27.42;46.36;96251.38;2094436;28;20194;-60
2022/06/23 10:33:07;;;;;;;107.57;4.60;;;;;;;27.97;45.72;96259.94;2092539;28;20222;-60
2022/06/23 10:34:28;;;;;;;132.60;38.85;;;;;;;28.40;43.81;96262.72;2099210;28;20190;-60
2022/06/23 10:35:57;;;;;;;132.13;54.15;;;;;;;27.66;44.72;96251.09;2086520;28;20200;-60
2022/06/23 10:37:23;;;;;;;108.93;17.92;;;;;;;28.74;43.32;96255.88;2086760;28;20207;-60
2022/06/23 10:38:52;;;;;;;146.43;84.32;;;;;;;29.50;41.54;96257.09;2086197;28;20220;-60
2022/06/23 10:39:59;;;;;;;138.25;62.15;;;;;;;29.25;40.71;96262.06;2083571;28;20208;-60
2022/06/23 10:41:37;;;;;;;119.93;20.27;;;;;;;27.89;43.76;96247.47;2086925;28;20257;-60
2022/06/23 10:42:38;;;;;;;148.55;75.85;;;;;;;27.38;44.74;96257.06;2085940;28;20286;-59
2022/06/23 10:43:55;;;;;;;167.13;102.00;;;;;;;27.70;44.65;96248.88;2087011;28;20738;-59
2022/06/23 10:45:22;;;;;;;157.52;95.22;;;;;;;28.22;43.94;96252.44;2085548;28;20200;-60
2022/06/23 10:46:50;;;;;;;149.80;78.88;;;;;;;27.95;43.17;96249.41;2085657;28;20203;-59
2022/06/23 10:48:07;;;;;;;154.48;101.53;;;;;;;28.00;42.94;96246.16;2086706;28;20305;-64
2022/06/23 10:49:22;;;;;;;166.30;100.90;;;;;;;28.24;42.47;96246.84;2100790;28;20197;-62
2022/06/23 11:04:00;;;;;;;109.80;5.65;;;;;;;28.54;41.40;96236.03;2107858;27;20715;-63
2022/06/23 11:05:21;;;;;;;123.93;34.80;;;;;;;29.12;40.42;96238.63;2103732;28;20707;-63
2022/06/23 11:06:48;;;;;;;141.85;75.20;;;;;;;28.61;40.45;96237.75;2103084;28;20199;-63
2022/06/23 11:07:59;;;;;;;162.90;97.78;;;;;;;29.32;40.18;96236.09;2098528;28;20218;-63
2022/06/23 11:09:37;;;;;;;154.07;92.93;;;;;;;30.32;38.17;96235.75;2110094;28;20206;-63
2022/06/23 11:10:41;;;;;;;115.47;14.43;;;;;;;29.90;38.58;96227.75;2094971;28;20231;-64
2022/06/23 11:11:52;;;;;;;112.63;14.77;;;;;;;29.76;39.49;96224.16;2095076;28;20667;-64
2022/06/23 11:21:27;;;;;;;114.45;11.23;;;;;;;29.00;39.46;96223.03;2102316;27;20576;-63
2022/06/23 11:22:43;;;;;;;112.72;10.48;;;;;;;28.75;40.43;96222.63;2053271;28;20232;-63
2022/06/23 11:24:01;;;;;;;119.82;10.45;;;;;;;28.93;40.04;96221.31;2045176;29;20247;-63
2022/06/23 11:25:40;;;;;;;108.55;8.90;;;;;;;30.32;38.16;96219.59;2045362;29;20207;-64
2022/06/23 11:27:03;;;;;;;113.75;7.60;;;;;;;30.79;36.35;96211.59;2045468;29;20208;-63
2022/06/23 11:28:18;;;;;;;119.60;24.53;;;;;;;30.67;36.21;96213.25;2063151;28;20624;-63
2022/06/23 11:29:40;;;;;;;104.63;5.90;;;;;;;30.50;37.50;96212.81;2082170;28;20436;-63
2022/06/23 11:30:57;;;;;;;119.22;26.45;;;;;;;29.94;38.25;96212.88;2079194;28;20423;-63
2022/06/23 11:32:18;;;;;;;143.40;60.73;;;;;;;30.03;38.04;96216.22;2079273;28;20204;-63
2022/06/23 11:41:53;;;;;;;122.22;30.27;;;;;;;28.27;40.62;96207.06;2098919;27;20905;-62
2022/06/23 11:43:03;;;;;;;113.20;13.23;;;;;;;28.76;40.42;96200.13;2089753;28;20224;-63
2022/06/23 11:44:37;;;;;;;130.68;43.50;;;;;;;28.94;40.32;96198.81;2088963;28;20197;-63
2022/06/23 11:45:51;;;;;;;114.43;12.50;;;;;;;29.32;39.00;96201.97;2087696;28;20660;-63
2022/06/23 11:47:04;;;;;;;121.43;12.00;;;;;;;29.71;37.89;96197.03;2091469;28;20205;-63
2022/06/23 11:48:19;;;;;;;114.53;8.23;;;;;;;29.53;37.89;96200.22;2080691;28;20220;-64
2022/06/23 11:49:32;;;;;;;109.35;10.73;;;;;;;29.69;37.11;96195.53;2086545;28;20193;-63
2022/06/23 11:50:57;;;;;;;108.43;8.50;;;;;;;29.81;37.33;96205.53;2084782;28;20194;-63
2022/06/23 11:52:18;;;;;;;122.43;20.40;;;;;;;28.80;38.98;96209.44;2070402;28;20274;-62
2022/06/23 11:53:43;;;;;;;121.38;8.13;;;;;;;28.79;39.42;96194.34;2096397;28;20718;-63
2022/06/23 11:55:10;;;;;;;130.50;24.95;;;;;;;28.14;40.07;96180.91;2094856;28;20200;-62
2022/06/23 11:56:41;;;;;;;108.90;6.68;;;;;;;28.95;39.00;96201.28;2090946;28;20201;-63
2022/06/23 11:58:21;;;;;;;114.38;9.88;;;;;;;29.26;38.18;96196.53;2070234;28;20233;-63
2022/06/23 11:59:43;;;;;;;109.25;7.32;;;;;;;29.44;38.19;96194.19;2088797;28;20544;-63
2022/06/23 12:01:20;;;;;;;108.05;7.70;;;;;;;30.84;35.97;96189.41;2089571;28;20216;-63
2022/06/23 12:02:21;;;;;;;118.30;13.37;;;;;;;30.32;36.67;96181.88;2091156;28;20567;-63
2022/06/23 12:04:00;;;;;;;127.60;34.90;;;;;;;30.16;36.21;96187.66;2090976;28;20431;-63
2022/06/23 12:16:09;;;;;;;116.47;27.65;;;;;;;30.37;36.00;96179.44;2085478;28;20581;-62
2022/06/23 12:17:18;;;;;;;154.35;77.97;;;;;;;30.51;35.18;96172.19;2074396;28;20198;-64
2022/06/23 12:18:43;;;;;;;187.93;167.30;;;;;;;30.49;35.15;96170.75;2089210;28;20692;-63
2022/06/23 12:20:24;;;;;;;154.47;93.57;;;;;;;31.14;34.75;96167.47;2077362;28;20431;-64
2022/06/23 12:21:44;;;;;;;198.13;176.37;;;;;;;31.01;34.02;96160.16;2049698;28;20801;-64
2022/06/23 12:22:57;;;;;;;184.90;161.00;;;;;;;30.93;34.87;96162.06;2071693;28;20459;-63
2022/06/23 12:24:10;;;;;;;190.33;169.63;;;;;;;30.77;34.74;96155.22;2073608;28;20935;-63
2022/06/23 12:25:24;;;;;;;198.93;168.60;;;;;;;30.12;35.71;96128.84;2075916;28;20431;-64
2022/06/23 12:34:03;;;;;;;109.10;7.00;;;;;;;29.17;37.87;96150.16;2083648;28;20563;-62
2022/06/23 12:35:07;;;;;;;112.30;10.20;;;;;;;30.05;36.46;96151.41;2082439;28;20205;-62
2022/06/23 12:36:19;;;;;;;107.90;8.25;;;;;;;30.38;36.06;96143.38;2080581;28;20197;-63
2022/06/23 12:37:37;;;;;;;123.88;17.15;;;;;;;31.62;34.14;96140.13;2072361;28;20244;-63
2022/06/23 12:38:49;;;;;;;138.37;57.33;;;;;;;32.39;32.70;96142.88;2079022;28;20421;-63
2022/06/23 12:40:13;;;;;;;161.70;93.53;;;;;;;31.86;33.44;96143.19;2078017;28;20438;-63
2022/06/23 12:41:33;;;;;;;171.87;126.43;;;;;;;30.80;35.37;96112.75;2073486;28;20938;-63
2022/06/23 12:42:52;;;;;;;185.10;152.63;;;;;;;30.12;36.25;96134.25;2074408;28;20990;-62
2022/06/23 12:43:59;;;;;;;191.77;147.27;;;;;;;30.01;36.71;96134.84;2075762;28;20423;-63
2022/06/23 12:45:31;;;;;;;180.33;135.30;;;;;;;31.17;35.11;96138.19;2073276;28;20953;-63
2022/06/23 12:46:49;;;;;;;187.10;158.57;;;;;;;29.81;36.92;96137.44;2074266;28;20435;-62
2022/06/23 12:47:57;;;;;;;174.50;118.20;;;;;;;30.38;36.78;96131.78;2064930;28;20525;-63
2022/06/23 12:49:07;;;;;;;190.27;140.53;;;;;;;30.48;35.52;96123.34;2084298;28;20419;-63
2022/06/23 12:50:31;;;;;;;197.17;173.73;;;;;;;30.43;36.13;96122.03;2077321;28;20469;-63
2022/06/23 12:51:42;;;;;;;198.10;176.40;;;;;;;30.89;35.02;96122.25;2077174;28;20447;-63
2022/06/23 12:53:00;;;;;;;200.30;177.00;;;;;;;30.95;34.02;96126.81;2064659;28;20500;-62
2022/06/23 12:54:23;;;;;;;192.70;171.77;;;;;;;30.35;35.25;96122.25;2079743;28;20461;-62
2022/06/23 12:55:43;;;;;;;189.73;169.00;;;;;;;29.98;35.93;96127.19;2073253;28;20796;-62
2022/06/23 12:56:57;;;;;;;193.57;164.33;;;;;;;30.02;35.08;96123.03;2074455;28;20431;-62
2022/06/23 12:58:50;;;;;;;181.60;154.03;;;;;;;30.59;35.00;96117.34;2070800;28;20470;-63
2022/06/23 13:00:12;;;;;;;192.03;170.80;;;;;;;30.53;34.41;96113.59;2049899;28;20448;-63
2022/06/23 13:01:29;;;;;;;157.97;108.10;;;;;;;29.88;35.48;96106.03;2047460;28;20764;-62
2022/06/23 13:02:43;;;;;;;195.13;152.30;;;;;;;28.63;36.35;96105.97;2039136;28;20468;-62
2022/06/23 13:04:00;;;;;;;203.97;181.83;;;;;;;28.13;36.55;96031.66;2048919;28;20422;-61
2022/06/23 13:05:33;;;;;;;198.45;169.95;;;;;;;30.13;34.63;96103.59;2051081;28;20449;-61
2022/06/23 13:06:42;;;;;;;198.73;175.03;;;;;;;31.25;33.30;96110.19;2050834;28;20201;-63
2022/06/23 13:07:50;;;;;;;204.17;182.57;;;;;;;31.23;33.39;96104.16;2040254;28;20474;-63
2022/06/23 13:19:44;;;;;;;160.25;106.25;;;;;;;30.28;34.65;96081.88;2100041;27;20551;-59
2022/06/23 13:21:21;;;;;;;179.17;145.40;;;;;;;30.70;33.90;96087.06;2095053;28;20207;-60
2022/06/23 13:22:23;;;;;;;181.88;150.50;;;;;;;30.61;34.20;96083.75;2084902;28;21071;-61
2022/06/23 13:23:48;;;;;;;170.70;131.33;;;;;;;30.92;34.35;96079.56;2094845;28;20280;-60
2022/06/23 13:24:56;;;;;;;215.07;185.90;;;;;;;31.82;32.52;96074.47;2082018;28;21130;-61
2022/06/23 13:26:04;;;;;;;198.43;177.13;;;;;;;32.90;30.87;96086.13;2077357;28;20431;-60
2022/06/23 13:27:16;;;;;;;190.67;167.27;;;;;;;33.58;30.27;96083.50;2070499;28;20763;-61
2022/06/23 13:28:45;;;;;;;126.23;35.33;;;;;;;33.47;29.02;96077.81;2103085;28;20421;-60
2022/06/23 13:29:46;;;;;;;114.10;6.70;;;;;;;33.78;29.24;96075.94;2087327;28;20457;-61
2022/06/23 13:30:53;;;;;;;95.73;4.50;;;;;;;34.27;29.23;96065.03;2087062;28;21145;-61
2022/06/23 13:32:22;;;;;;;109.17;5.00;;;;;;;32.86;30.28;96069.53;2086763;28;20429;-61
2022/06/23 13:33:48;;;;;;;92.27;4.13;;;;;;;33.69;29.44;96072.72;2086852;28;20434;-60
2022/06/23 13:35:02;;;;;;;98.33;3.90;;;;;;;34.20;29.06;96045.34;2086437;28;20774;-61
2022/06/23 13:36:32;;;;;;;100.63;3.77;;;;;;;33.81;29.81;96066.56;2086484;28;20430;-60
2022/06/23 13:37:50;;;;;;;94.47;4.03;;;;;;;31.04;32.95;96066.25;2086349;28;21047;-61
2022/06/23 13:39:02;;;;;;;100.27;6.90;;;;;;;31.98;32.15;96057.75;2086115;28;20544;-61
2022/06/23 13:40:22;;;;;;;101.43;6.03;;;;;;;32.76;31.20;96057.56;2086294;28;20445;-61
2022/06/23 13:41:37;;;;;;;100.30;6.30;;;;;;;32.13;32.46;96062.03;2086028;28;20925;-61
2022/06/23 13:42:50;;;;;;;111.40;6.70;;;;;;;33.43;30.44;96056.84;2086938;28;20990;-61
2022/06/23 13:44:19;;;;;;;99.20;6.77;;;;;;;33.75;30.22;96049.34;2102838;28;20432;-61
2022/06/23 13:45:55;;;;;;;103.17;7.17;;;;;;;33.93;30.27;96053.03;2086994;28;20430;-63
2022/06/23 13:47:08;;;;;;;93.03;4.33;;;;;;;34.14;29.26;96052.50;2067580;28;20442;-64
2022/06/23 13:48:17;;;;;;;98.80;5.13;;;;;;;32.72;31.18;96054.44;2085118;28;20802;-63
2022/06/23 13:49:26;;;;;;;110.93;6.73;;;;;;;32.40;31.40;96055.41;2086952;28;20433;-64
2022/06/23 13:50:50;;;;;;;98.20;8.00;;;;;;;33.32;30.46;96048.44;2086676;28;20425;-64
2022/06/23 13:51:55;;;;;;;101.10;6.27;;;;;;;34.20;29.14;96045.34;2085908;28;20422;-63
2022/06/23 13:53:00;;;;;;;109.40;6.90;;;;;;;33.26;30.47;96037.69;2091727;28;20986;-63
2022/06/23 13:54:18;;;;;;;97.23;6.07;;;;;;;33.90;29.35;96032.69;2102708;28;20432;-64
2022/06/23 13:55:29;;;;;;;96.67;4.23;;;;;;;34.38;28.75;96035.50;2085776;28;20426;-63
2022/06/23 13:56:55;;;;;;;96.80;4.70;;;;;;;34.71;28.09;96036.81;2087020;28;20445;-63
2022/06/23 13:58:15;;;;;;;98.67;4.27;;;;;;;34.25;28.65;96033.81;2085857;28;20452;-64
2022/06/23 14:00:01;;;;;;;98.13;4.70;;;;;;;33.78;28.75;96029.09;2086417;28;20462;-64
2022/06/23 14:01:14;;;;;;;103.57;3.80;;;;;;;34.48;28.30;96016.78;2086501;28;20778;-64
2022/06/23 14:02:27;;;;;;;95.10;5.50;;;;;;;34.88;28.41;95998.97;2080703;28;20913;-63
2022/06/23 14:03:53;;;;;;;90.50;6.70;;;;;;;34.25;28.70;96023.00;2102481;28;20814;-63
2022/06/23 14:05:06;;;;;;;103.70;19.37;;;;;;;30.18;33.51;96024.91;2088001;28;20430;-62
2022/06/23 14:06:28;;;;;;;97.07;9.50;;;;;;;30.24;33.52;96018.69;2085405;28;20433;-63
2022/06/23 14:07:41;;;;;;;100.10;10.73;;;;;;;31.03;33.06;95994.53;2073706;28;20534;-63
2022/06/23 14:08:54;;;;;;;101.53;7.37;;;;;;;32.31;31.24;96027.00;2102702;28;20421;-64
2022/06/23 14:10:27;;;;;;;100.93;6.67;;;;;;;33.13;30.15;96019.72;2087007;28;20750;-61
2022/06/23 14:11:36;;;;;;;99.07;5.03;;;;;;;32.90;30.22;96023.97;2086148;28;20418;-61
2022/06/23 14:13:04;;;;;;;99.37;5.27;;;;;;;32.79;30.19;96017.41;2086540;28;20464;-61
2022/06/23 14:14:30;;;;;;;101.50;6.17;;;;;;;31.30;32.38;96021.41;2101222;28;20428;-60
2022/06/23 14:15:44;;;;;;;100.17;5.83;;;;;;;31.54;31.98;96018.97;2085983;28;20422;-61
2022/06/23 14:17:05;;;;;;;115.10;7.10;;;;;;;29.85;33.32;96009.53;2085500;28;20780;-60
2022/06/23 14:18:33;;;;;;;115.50;21.40;;;;;;;30.00;33.61;96000.50;2091502;28;20460;-61
2022/06/23 14:19:56;;;;;;;104.10;14.77;;;;;;;30.27;32.81;96014.75;2089050;28;20477;-60
2022/06/23 14:21:27;;;;;;;114.77;27.47;;;;;;;31.04;32.62;96011.53;2086189;28;20469;-60
2022/06/23 14:22:36;;;;;;;104.77;9.07;;;;;;;31.45;31.57;96009.50;2084060;28;20472;-60
2022/06/23 14:23:48;;;;;;;107.33;19.20;;;;;;;30.85;32.46;96008.66;2101792;28;20421;-60
2022/06/23 14:25:13;;;;;;;107.27;10.33;;;;;;;30.82;32.23;96017.19;2089906;28;20434;-60
2022/06/23 14:26:22;;;;;;;109.33;16.97;;;;;;;31.88;31.44;96006.13;2075578;28;20987;-60
2022/06/23 14:27:29;;;;;;;115.63;24.37;;;;;;;32.62;30.73;96011.75;2081847;28;20962;-61
2022/06/23 14:28:38;;;;;;;99.57;6.00;;;;;;;32.69;29.77;95995.47;2102684;28;20985;-61
2022/06/23 14:29:51;;;;;;;100.93;3.83;;;;;;;31.17;31.41;96003.38;2092043;28;20434;-60
2022/06/23 14:31:00;;;;;;;101.80;3.60;;;;;;;30.97;31.71;95987.28;2079994;28;21093;-60
2022/06/23 14:32:04;;;;;;;100.40;4.80;;;;;;;30.55;32.52;95995.72;2080691;28;20434;-60
2022/06/23 14:33:20;;;;;;;97.90;4.30;;;;;;;30.55;32.55;95998.41;2080201;28;20431;-60
2022/06/23 14:34:35;;;;;;;102.53;8.60;;;;;;;30.17;33.39;95999.03;2080653;28;20429;-60
2022/06/23 14:35:42;;;;;;;101.70;11.47;;;;;;;30.19;33.74;95999.66;2080147;28;20426;-60
2022/06/23 14:36:57;;;;;;;107.57;20.43;;;;;;;29.83;34.23;95992.81;2080291;28;20430;-59
2022/06/23 14:38:15;;;;;;;115.80;24.73;;;;;;;29.89;34.11;96000.09;2077594;28;20465;-60
2022/06/23 14:39:26;;;;;;;116.00;16.93;;;;;;;29.81;33.74;95994.84;2085667;28;20457;-60
2022/06/23 14:40:45;;;;;;;110.80;18.03;;;;;;;30.11;33.80;95994.50;2079880;28;20775;-60
2022/06/23 14:42:21;;;;;;;110.13;20.10;;;;;;;30.29;32.80;95983.09;2080920;28;20910;-60
2022/06/23 14:43:29;;;;;;;122.37;25.10;;;;;;;30.73;32.57;95988.84;2080260;28;20447;-60
2022/06/23 14:44:30;;;;;;;112.27;27.77;;;;;;;31.16;32.61;95982.88;2080789;28;20536;-60
2022/06/23 14:45:41;;;;;;;125.70;51.73;;;;;;;31.33;33.05;95987.78;2080100;28;20423;-60
2022/06/23 14:46:56;;;;;;;109.67;25.43;;;;;;;30.23;33.50;95981.22;2080691;28;20808;-60
2022/06/23 14:48:24;;;;;;;158.30;107.60;;;;;;;29.23;35.59;95987.25;2085688;28;20460;-59
2022/06/23 14:49:47;;;;;;;182.03;152.87;;;;;;;29.26;35.49;95984.19;2090245;28;20423;-60
2022/06/23 14:51:04;;;;;;;194.60;172.87;;;;;;;28.55;36.45;95974.56;2080012;28;20944;-59
2022/06/23 14:52:24;;;;;;;176.57;146.90;;;;;;;28.60;36.53;95970.25;2079573;28;20438;-58
2022/06/23 14:53:43;;;;;;;171.63;131.87;;;;;;;28.99;35.72;95976.03;2080736;28;20484;-59
2022/06/23 14:54:44;;;;;;;172.47;145.87;;;;;;;30.00;34.64;95974.41;2080457;28;20508;-60
2022/06/23 14:55:46;;;;;;;194.27;173.40;;;;;;;29.85;34.43;95971.06;2080461;28;20790;-60
2022/06/23 14:56:51;;;;;;;197.20;175.50;;;;;;;30.61;33.12;95976.03;2080698;28;20456;-60
2022/06/23 14:57:55;;;;;;;203.03;181.17;;;;;;;30.60;32.68;95973.50;2083243;28;20469;-59
2022/06/23 14:59:27;;;;;;;208.47;186.00;;;;;;;30.44;33.44;95978.28;2095726;28;20464;-60
2022/06/23 15:00:49;;;;;;;186.77;165.13;;;;;;;31.22;32.91;95970.41;2080841;28;20724;-60
2022/06/23 15:02:24;;;;;;;183.07;144.80;;;;;;;31.69;31.17;95967.44;2080192;28;20506;-60
2022/06/23 15:03:38;;;;;;;131.80;60.30;;;;;;;30.35;32.88;95939.16;2080392;28;20451;-61
2022/06/23 15:05:05;;;;;;;122.17;39.63;;;;;;;31.32;31.76;95969.94;2080558;28;20458;-60
2022/06/23 15:06:06;;;;;;;100.07;8.80;;;;;;;32.11;29.37;95973.13;2080338;28;20446;-60
2022/06/23 15:07:29;;;;;;;100.90;5.60;;;;;;;31.87;30.05;95970.22;2072342;28;20431;-60
2022/06/23 15:08:33;;;;;;;97.63;3.80;;;;;;;31.20;31.37;95970.63;2088123;28;20438;-60
2022/06/23 15:09:35;;;;;;;102.00;8.30;;;;;;;31.09;31.53;95969.41;2083867;28;20438;-60
2022/06/23 15:10:54;;;;;;;101.57;4.50;;;;;;;31.41;31.25;95957.84;2080461;28;20787;-60
2022/06/23 15:12:40;;;;;;;97.80;6.23;;;;;;;31.07;32.43;95957.19;2080070;28;20429;-60
2022/06/23 15:13:53;;;;;;;146.80;78.33;;;;;;;31.73;32.41;95945.22;2074303;28;20454;-60
2022/06/23 15:15:00;;;;;;;94.23;5.37;;;;;;;31.73;30.63;95963.25;2080589;28;20442;-60
2022/06/23 15:16:08;;;;;;;100.37;4.00;;;;;;;30.84;31.81;95950.44;2080161;28;20450;-60
2022/06/23 15:17:20;;;;;;;108.63;5.40;;;;;;;30.99;31.84;95952.84;2072938;28;20434;-60
2022/06/23 15:18:24;;;;;;;97.00;3.63;;;;;;;31.98;30.39;95957.88;2096331;28;20421;-60
2022/06/23 15:19:38;;;;;;;100.13;4.00;;;;;;;32.76;29.20;95961.13;2089860;28;20422;-61
2022/06/23 15:20:45;;;;;;;109.13;11.43;;;;;;;32.45;29.56;95962.06;2076865;28;20435;-60
2022/06/23 15:23:44;;;;;;;99.40;4.10;;;;;;;31.21;31.68;95963.34;2078687;28;20446;-60
2022/06/23 15:24:51;;;;;;;97.80;3.63;;;;;;;31.16;31.33;95963.16;2080473;28;21193;-60
2022/06/23 15:25:56;;;;;;;97.90;5.93;;;;;;;30.48;32.64;95957.19;2080485;28;20910;-60
2022/06/23 15:27:20;;;;;;;119.10;24.87;;;;;;;30.10;33.81;95953.28;2079669;28;20438;-59
2022/06/23 15:28:59;;;;;;;191.83;142.37;;;;;;;29.95;35.13;95947.28;2079555;28;20447;-60
2022/06/23 15:30:08;;;;;;;205.10;183.67;;;;;;;30.49;34.61;95952.63;2067339;28;20861;-60
2022/06/23 15:31:51;;;;;;;195.30;172.57;;;;;;;31.57;33.01;95943.03;2079016;28;20430;-60
2022/06/23 15:33:04;;;;;;;182.40;162.10;;;;;;;32.42;32.15;95940.88;2078056;28;20496;-63
2022/06/23 15:34:15;;;;;;;187.67;167.20;;;;;;;32.83;31.56;95951.03;2080748;28;20433;-63